Time;durP1;ratioP1;P1;durP2;ratioP2;P2;SDS_P1;SDS_P2;PMS_P1;PMS_P2;Temp;Humidity;BMP_temperature;BMP_pressure;BME280_temperature;BME280_humidity;BME280_pressure;Samples;Min_cycle;Max_cycle;Signal;HPM_P1;HPM_P2
2022/01/15 00:00:15;;;;;;;12.13;3.23;;;4.20;99.90;;;;;;5076386;28;20197;-69
2022/01/15 00:02:40;;;;;;;15.80;4.83;;;4.10;99.90;;;;;;5064314;28;20209;-65
2022/01/15 00:05:06;;;;;;;20.77;3.97;;;4.00;99.90;;;;;;5069220;28;20681;-65
2022/01/15 00:07:31;;;;;;;23.23;4.00;;;3.90;99.90;;;;;;5064733;28;20213;-65
2022/01/15 00:09:57;;;;;;;20.40;4.40;;;3.90;99.90;;;;;;5077090;28;20177;-67
2022/01/15 00:12:22;;;;;;;9.60;3.60;;;3.80;99.90;;;;;;5061739;28;20677;-64
2022/01/15 00:14:48;;;;;;;13.83;3.20;;;3.70;99.90;;;;;;5072905;28;20206;-64
2022/01/15 00:17:18;;;;;;;9.93;3.47;;;3.70;99.90;;;;;;5062515;28;20182;-68
2022/01/15 00:19:45;;;;;;;18.27;3.40;;;3.60;99.90;;;;;;5068867;28;20238;-67
2022/01/15 00:22:15;;;;;;;13.30;3.90;;;3.60;99.90;;;;;;5063358;28;20233;-68
2022/01/15 00:24:41;;;;;;;20.43;5.13;;;3.50;99.90;;;;;;5075183;28;20201;-65
2022/01/15 00:27:07;;;;;;;20.17;5.00;;;3.50;99.90;;;;;;5076898;28;20189;-68
2022/01/15 00:29:33;;;;;;;13.50;3.43;;;3.50;99.90;;;;;;5069484;28;20552;-66
2022/01/15 00:32:00;;;;;;;17.13;4.73;;;3.40;99.90;;;;;;5055092;28;20336;-68
2022/01/15 00:34:27;;;;;;;12.83;4.13;;;3.40;99.90;;;;;;5068173;28;20232;-64
2022/01/15 00:36:53;;;;;;;21.00;4.03;;;3.40;99.90;;;;;;5076865;28;20351;-62
2022/01/15 00:39:19;;;;;;;18.57;4.73;;;3.60;99.90;;;;;;5067584;28;20194;-66
2022/01/15 00:41:44;;;;;;;20.20;3.97;;;3.70;99.90;;;;;;5058166;28;20205;-67
2022/01/15 00:44:10;;;;;;;9.80;3.53;;;3.60;99.90;;;;;;5065763;28;20205;-66
2022/01/15 00:46:36;;;;;;;18.70;4.10;;;3.60;99.90;;;;;;5059338;28;20213;-70
2022/01/15 00:49:02;;;;;;;19.07;3.40;;;3.50;99.90;;;;;;5072739;28;20209;-67
2022/01/15 00:51:28;;;;;;;11.83;3.73;;;3.50;99.90;;;;;;5060376;28;20209;-68
2022/01/15 00:53:53;;;;;;;20.13;3.80;;;3.40;99.90;;;;;;5063447;28;20220;-67
2022/01/15 00:56:19;;;;;;;16.03;5.20;;;3.40;99.90;;;;;;5077597;28;20217;-70
2022/01/15 00:58:45;;;;;;;13.97;3.50;;;3.40;99.90;;;;;;5076913;28;20194;-65
2022/01/15 01:01:10;;;;;;;14.50;3.10;;;3.30;99.90;;;;;;5065689;28;20201;-64
2022/01/15 01:03:36;;;;;;;17.97;3.70;;;3.30;99.90;;;;;;5074701;28;20420;-68
2022/01/15 01:06:01;;;;;;;9.57;3.97;;;3.30;99.90;;;;;;5065203;28;20202;-67
2022/01/15 01:08:27;;;;;;;13.20;3.47;;;3.30;99.90;;;;;;5062601;28;20707;-69
2022/01/15 01:10:58;;;;;;;12.00;4.70;;;3.30;99.90;;;;;;5063235;28;21051;-69
2022/01/15 01:24:26;;;;;;;16.13;3.77;;;3.20;99.90;;;;;;5068907;28;20190;-68
2022/01/15 01:27:03;;;;;;;22.93;4.97;;;3.20;99.90;;;;;;5068008;28;20693;-68
2022/01/15 01:32:10;;;;;;;19.90;3.70;;;3.20;99.90;;;;;;5052584;28;20213;-66
2022/01/15 01:34:39;;;;;;;20.40;3.83;;;3.10;99.90;;;;;;5069836;28;20582;-69
2022/01/15 01:39:50;;;;;;;21.57;4.60;;;3.00;99.90;;;;;;5074835;28;20257;-69
2022/01/15 01:45:06;;;;;;;12.93;4.13;;;3.00;99.90;;;;;;5053653;28;20252;-73
2022/01/15 01:47:41;;;;;;;14.90;3.77;;;3.00;99.90;;;;;;5065280;28;20216;-71
2022/01/15 01:50:19;;;;;;;20.97;4.47;;;3.00;99.90;;;;;;5054465;28;20236;-70
2022/01/15 01:52:48;;;;;;;16.73;4.53;;;3.00;99.90;;;;;;5063318;28;20184;-70
2022/01/15 01:55:15;;;;;;;19.23;3.30;;;3.00;99.90;;;;;;5060493;28;20198;-70
2022/01/15 01:57:41;;;;;;;15.50;5.37;;;3.00;99.90;;;;;;5069249;28;20189;-67
2022/01/15 02:00:09;;;;;;;17.27;4.13;;;2.90;99.90;;;;;;5053390;28;20212;-68
2022/01/15 02:02:35;;;;;;;8.77;3.70;;;2.90;99.90;;;;;;5050422;28;20553;-67
2022/01/15 02:05:02;;;;;;;19.10;5.00;;;2.90;99.90;;;;;;5051948;28;20663;-68
2022/01/15 02:07:28;;;;;;;18.40;5.10;;;2.90;99.90;;;;;;5053111;28;20808;-68
2022/01/15 02:09:55;;;;;;;15.63;3.27;;;2.80;99.90;;;;;;5052043;28;20198;-70
2022/01/15 02:12:21;;;;;;;12.80;3.93;;;2.80;99.90;;;;;;5053918;28;20600;-69
2022/01/15 02:14:46;;;;;;;14.80;4.13;;;2.70;99.90;;;;;;5051291;28;20297;-68
2022/01/15 02:17:16;;;;;;;12.60;4.50;;;2.70;99.90;;;;;;5051925;28;20266;-69
2022/01/15 02:25:12;;;;;;;25.50;4.20;;;2.60;99.90;;;;;;5050633;28;20706;-68
2022/01/15 02:27:37;;;;;;;15.30;3.93;;;2.60;99.90;;;;;;5055559;28;20253;-69
2022/01/15 02:30:04;;;;;;;23.97;4.57;;;2.60;99.90;;;;;;5051340;28;20672;-68
2022/01/15 02:32:34;;;;;;;20.17;4.07;;;2.50;99.90;;;;;;5051647;28;20618;-67
2022/01/15 02:35:03;;;;;;;18.73;5.37;;;2.50;99.90;;;;;;5052175;28;20345;-68
2022/01/15 02:37:30;;;;;;;18.27;4.43;;;2.50;99.90;;;;;;5054218;28;20198;-68
2022/01/15 02:39:56;;;;;;;20.90;4.50;;;2.50;99.90;;;;;;5050119;28;20282;-68
2022/01/15 02:42:29;;;;;;;19.50;3.50;;;2.50;99.90;;;;;;5051552;28;20201;-66
2022/01/15 02:45:00;;;;;;;14.33;3.40;;;2.40;99.90;;;;;;5050813;28;20288;-66
2022/01/15 02:50:10;;;;;;;16.00;3.93;;;2.40;99.90;;;;;;5052203;28;20208;-64
2022/01/15 02:52:36;;;;;;;12.47;3.23;;;2.50;99.90;;;;;;5057706;28;20190;-62
2022/01/15 02:55:01;;;;;;;14.10;3.67;;;2.50;99.90;;;;;;5054202;28;20200;-62
2022/01/15 02:57:27;;;;;;;15.50;4.73;;;2.50;99.90;;;;;;5057762;28;20214;-64
2022/01/15 02:59:52;;;;;;;23.67;4.37;;;2.50;99.90;;;;;;5054932;28;20200;-64
2022/01/15 03:02:18;;;;;;;21.03;3.80;;;2.50;99.90;;;;;;5057992;28;20290;-64
2022/01/15 03:04:43;;;;;;;18.97;4.30;;;2.50;99.90;;;;;;5053674;28;20213;-62
2022/01/15 03:07:09;;;;;;;18.43;4.57;;;2.50;99.90;;;;;;5056845;28;20186;-60
2022/01/15 03:09:34;;;;;;;23.67;5.00;;;2.50;99.90;;;;;;5060297;28;20208;-63
2022/01/15 03:12:02;;;;;;;22.33;4.67;;;2.50;99.90;;;;;;5054046;28;20264;-63
2022/01/15 03:14:30;;;;;;;21.87;4.60;;;2.50;99.90;;;;;;5060551;28;20218;-60
2022/01/15 03:16:56;;;;;;;12.23;3.97;;;2.40;99.90;;;;;;5054849;28;20179;-61
2022/01/15 03:19:21;;;;;;;20.83;4.37;;;2.50;99.90;;;;;;5060899;28;20194;-61
2022/01/15 03:21:47;;;;;;;21.73;4.13;;;2.40;99.90;;;;;;5058931;28;20726;-62
2022/01/15 03:24:12;;;;;;;13.73;5.27;;;2.40;99.90;;;;;;5064932;28;20741;-61
2022/01/15 03:26:38;;;;;;;22.40;5.53;;;2.40;99.90;;;;;;5050304;28;20629;-61
2022/01/15 03:29:03;;;;;;;20.93;4.40;;;2.30;99.90;;;;;;5063382;28;20190;-62
2022/01/15 03:31:29;;;;;;;19.23;3.67;;;2.30;99.90;;;;;;5047952;28;20184;-61
2022/01/15 03:33:55;;;;;;;25.60;5.07;;;2.30;99.90;;;;;;5055741;28;21038;-61
2022/01/15 03:36:20;;;;;;;14.70;4.30;;;2.30;99.90;;;;;;5066607;28;20216;-61
2022/01/15 03:38:46;;;;;;;22.57;3.97;;;2.30;99.90;;;;;;5054563;28;20202;-64
2022/01/15 03:41:11;;;;;;;19.33;4.50;;;2.30;99.90;;;;;;5059989;28;20199;-63
2022/01/15 03:43:36;;;;;;;22.93;5.03;;;2.30;99.90;;;;;;5048612;28;20217;-64
2022/01/15 03:46:02;;;;;;;17.30;3.87;;;2.30;99.90;;;;;;5065889;28;20197;-63
2022/01/15 03:48:28;;;;;;;13.47;4.60;;;2.20;99.90;;;;;;5050876;28;20245;-64
2022/01/15 03:50:53;;;;;;;21.33;4.77;;;2.20;99.90;;;;;;5066558;28;20193;-63
2022/01/15 03:53:21;;;;;;;16.63;4.27;;;2.20;99.90;;;;;;5054588;28;20561;-63
2022/01/15 03:55:47;;;;;;;14.03;4.10;;;2.20;99.90;;;;;;5066224;28;20284;-63
2022/01/15 03:58:12;;;;;;;16.83;3.80;;;2.10;99.90;;;;;;5051932;28;20286;-63
2022/01/15 04:00:38;;;;;;;23.93;5.30;;;2.10;99.90;;;;;;5063867;28;20200;-63
2022/01/15 04:03:04;;;;;;;22.20;5.43;;;2.10;99.90;;;;;;5052497;28;20729;-63
2022/01/15 04:05:30;;;;;;;16.13;5.47;;;2.10;99.90;;;;;;5060430;28;20198;-63
2022/01/15 04:07:55;;;;;;;18.17;4.40;;;2.10;99.90;;;;;;5054107;28;20749;-63
2022/01/15 04:10:21;;;;;;;20.60;5.27;;;2.00;99.90;;;;;;5064612;28;20273;-63
2022/01/15 04:12:47;;;;;;;16.03;4.47;;;2.00;99.90;;;;;;5063587;28;20209;-63
2022/01/15 04:15:13;;;;;;;21.90;4.57;;;2.00;99.90;;;;;;5065377;28;20284;-63
2022/01/15 04:17:41;;;;;;;14.40;3.50;;;2.00;99.90;;;;;;5056242;28;20209;-64
2022/01/15 04:20:07;;;;;;;24.27;5.10;;;2.00;99.90;;;;;;5064258;28;20201;-64
2022/01/15 04:22:33;;;;;;;26.77;6.03;;;2.00;99.90;;;;;;5055472;28;20303;-63
2022/01/15 04:24:58;;;;;;;20.50;4.40;;;2.00;99.90;;;;;;5055032;28;20601;-64
2022/01/15 04:27:24;;;;;;;17.93;4.17;;;1.90;99.90;;;;;;5058622;28;20256;-61
2022/01/15 04:29:50;;;;;;;20.70;5.40;;;1.90;99.90;;;;;;5057714;28;20812;-62
2022/01/15 04:32:17;;;;;;;13.63;3.83;;;1.90;99.90;;;;;;5060901;28;20277;-62
2022/01/15 04:34:42;;;;;;;22.03;5.33;;;1.80;99.90;;;;;;5057201;28;20208;-62
2022/01/15 04:37:13;;;;;;;22.07;5.40;;;1.80;99.90;;;;;;5063764;28;20261;-62
2022/01/15 04:39:40;;;;;;;19.40;4.90;;;1.70;99.90;;;;;;5053425;28;20733;-62
2022/01/15 04:42:06;;;;;;;17.40;4.57;;;1.70;99.90;;;;;;5063765;28;20196;-62
2022/01/15 04:44:31;;;;;;;24.47;5.90;;;1.70;99.90;;;;;;5056219;28;20185;-62
2022/01/15 04:46:59;;;;;;;14.00;4.80;;;1.70;99.90;;;;;;5060685;28;20204;-62
2022/01/15 04:49:24;;;;;;;20.07;4.77;;;1.70;99.90;;;;;;5057999;28;20238;-61
2022/01/15 04:51:50;;;;;;;20.10;4.93;;;1.70;99.90;;;;;;5060815;28;20525;-61
2022/01/15 04:54:15;;;;;;;12.13;4.10;;;1.70;99.90;;;;;;5050098;28;20940;-64
2022/01/15 04:56:41;;;;;;;8.97;3.87;;;1.70;99.90;;;;;;5065296;28;20308;-61
2022/01/15 04:59:06;;;;;;;20.50;6.43;;;1.70;99.90;;;;;;5049655;28;20211;-61
2022/01/15 05:01:32;;;;;;;13.97;5.00;;;1.70;99.90;;;;;;5060085;28;20273;-62
2022/01/15 05:03:57;;;;;;;21.23;5.87;;;1.80;99.90;;;;;;5053629;28;20618;-62
2022/01/15 05:06:23;;;;;;;18.17;5.73;;;1.80;99.90;;;;;;5063940;28;20201;-62
2022/01/15 05:08:52;;;;;;;19.20;6.07;;;1.70;99.90;;;;;;5048593;28;20193;-62
2022/01/15 05:11:29;;;;;;;21.37;6.53;;;1.70;99.90;;;;;;5064752;28;20231;-63
2022/01/15 05:13:55;;;;;;;17.83;6.70;;;1.70;99.90;;;;;;5043437;28;20250;-62
2022/01/15 05:16:20;;;;;;;12.73;4.70;;;1.70;99.90;;;;;;5063984;28;20703;-62
2022/01/15 05:18:46;;;;;;;16.47;5.40;;;1.70;99.90;;;;;;5053321;28;20230;-62
2022/01/15 05:21:11;;;;;;;19.30;6.10;;;1.70;99.90;;;;;;5064045;28;20342;-62
2022/01/15 05:23:37;;;;;;;31.30;6.97;;;1.60;99.90;;;;;;5060072;28;20577;-63
2022/01/15 05:26:02;;;;;;;17.93;6.87;;;1.60;99.90;;;;;;5063963;28;20203;-63
2022/01/15 05:28:28;;;;;;;21.80;6.10;;;1.60;99.90;;;;;;5048985;28;21141;-62
2022/01/15 05:30:53;;;;;;;12.43;6.63;;;1.70;99.90;;;;;;5064614;28;20205;-62
2022/01/15 05:33:19;;;;;;;19.83;5.90;;;1.60;99.90;;;;;;5052592;28;20204;-62
2022/01/15 05:35:44;;;;;;;14.07;5.40;;;1.60;99.90;;;;;;5062950;28;20215;-62
2022/01/15 05:38:10;;;;;;;14.30;5.67;;;1.60;99.90;;;;;;5062787;28;20622;-62
2022/01/15 05:40:36;;;;;;;15.30;5.33;;;1.70;99.90;;;;;;5062722;28;20229;-62
2022/01/15 05:43:02;;;;;;;18.50;5.03;;;1.60;99.90;;;;;;5053081;28;20691;-62
2022/01/15 05:45:28;;;;;;;17.57;5.80;;;1.60;99.90;;;;;;5064188;28;20196;-62
2022/01/15 05:47:54;;;;;;;23.90;5.73;;;1.60;99.90;;;;;;5062290;28;20236;-62
2022/01/15 05:50:20;;;;;;;23.07;7.03;;;1.60;99.90;;;;;;5063535;28;20273;-62
2022/01/15 05:52:45;;;;;;;24.00;6.63;;;1.60;99.90;;;;;;5053663;28;21044;-62
2022/01/15 05:55:11;;;;;;;21.87;7.17;;;1.60;99.90;;;;;;5063979;28;20938;-62
2022/01/15 05:57:37;;;;;;;25.67;5.63;;;1.70;99.90;;;;;;5059337;28;20197;-63
2022/01/15 06:00:08;;;;;;;25.83;6.40;;;1.70;99.90;;;;;;5055524;28;20188;-63
2022/01/15 06:02:33;;;;;;;15.47;5.93;;;1.70;99.90;;;;;;5042175;28;20199;-63
2022/01/15 06:04:59;;;;;;;24.70;6.17;;;1.60;99.90;;;;;;5060430;28;20194;-63
2022/01/15 06:07:25;;;;;;;13.57;5.70;;;1.60;99.90;;;;;;5055874;28;20243;-63
2022/01/15 06:09:50;;;;;;;17.67;6.03;;;1.60;99.90;;;;;;5057322;28;20196;-63
2022/01/15 06:12:16;;;;;;;15.73;5.67;;;1.60;99.90;;;;;;5062032;28;20914;-63
2022/01/15 06:14:41;;;;;;;18.53;5.87;;;1.60;99.90;;;;;;5049174;28;20216;-62
2022/01/15 06:17:08;;;;;;;15.67;5.43;;;1.60;99.90;;;;;;5059302;28;20204;-63
2022/01/15 06:19:35;;;;;;;18.53;5.90;;;1.60;99.90;;;;;;5056776;28;20216;-63
2022/01/15 06:22:01;;;;;;;26.10;6.90;;;1.60;99.90;;;;;;5065908;28;20231;-63
2022/01/15 06:24:26;;;;;;;21.53;7.27;;;1.60;99.90;;;;;;5058893;28;20198;-63
2022/01/15 06:26:52;;;;;;;23.10;6.17;;;1.50;99.90;;;;;;5064998;28;20194;-63
2022/01/15 06:29:17;;;;;;;21.47;7.27;;;1.50;99.90;;;;;;5056426;28;20208;-62
2022/01/15 06:31:42;;;;;;;15.63;6.07;;;1.50;99.90;;;;;;5064214;28;20567;-62
2022/01/15 06:34:08;;;;;;;18.97;7.33;;;1.40;99.90;;;;;;5063402;28;20209;-62
2022/01/15 06:36:33;;;;;;;19.20;8.10;;;1.40;99.90;;;;;;5066717;28;20238;-61
2022/01/15 06:38:59;;;;;;;26.33;7.23;;;1.40;99.90;;;;;;5065385;28;20206;-61
2022/01/15 06:41:24;;;;;;;24.23;6.83;;;1.40;99.90;;;;;;5067390;28;20259;-64
2022/01/15 06:43:50;;;;;;;25.17;6.83;;;1.30;99.90;;;;;;5055022;28;20216;-62
2022/01/15 06:46:16;;;;;;;21.43;6.67;;;1.40;99.90;;;;;;5058959;28;20193;-62
2022/01/15 06:48:41;;;;;;;15.80;6.53;;;1.40;99.90;;;;;;5050915;28;20210;-63
2022/01/15 06:51:07;;;;;;;23.53;7.13;;;1.40;99.90;;;;;;5067152;28;20536;-62
2022/01/15 06:53:32;;;;;;;27.10;7.90;;;1.40;99.90;;;;;;5055845;28;20552;-62
2022/01/15 06:55:58;;;;;;;18.57;6.30;;;1.40;99.90;;;;;;5065606;28;20652;-62
2022/01/15 06:58:24;;;;;;;21.27;7.13;;;1.40;99.90;;;;;;5051597;28;20201;-62
2022/01/15 07:00:50;;;;;;;22.87;7.50;;;1.40;99.90;;;;;;5066532;28;20248;-63
2022/01/15 07:03:18;;;;;;;26.57;6.90;;;1.40;99.90;;;;;;5050898;28;20203;-65
2022/01/15 07:05:44;;;;;;;19.77;7.33;;;1.40;99.90;;;;;;5060652;28;20210;-63
2022/01/15 07:08:10;;;;;;;24.07;6.50;;;1.50;99.90;;;;;;5055069;28;20205;-63
2022/01/15 07:10:39;;;;;;;21.27;6.80;;;1.50;99.90;;;;;;5066795;28;20192;-63
2022/01/15 07:13:05;;;;;;;19.70;6.80;;;1.50;99.90;;;;;;5059335;28;20662;-62
2022/01/15 07:15:31;;;;;;;29.93;7.70;;;1.50;99.90;;;;;;5066139;28;20204;-62
2022/01/15 07:17:59;;;;;;;26.80;8.43;;;1.40;99.90;;;;;;5060280;28;20195;-63
2022/01/15 07:20:24;;;;;;;25.03;7.00;;;1.40;99.90;;;;;;5066142;28;20683;-62
2022/01/15 07:22:50;;;;;;;16.13;6.73;;;1.40;99.90;;;;;;5064859;28;20313;-63
2022/01/15 07:25:15;;;;;;;20.57;7.07;;;1.40;99.90;;;;;;5066395;28;20237;-62
2022/01/15 07:27:42;;;;;;;25.33;9.50;;;1.30;99.90;;;;;;5064666;28;20543;-63
2022/01/15 07:30:09;;;;;;;22.80;7.67;;;1.30;99.90;;;;;;5066853;28;20571;-64
2022/01/15 07:32:35;;;;;;;19.43;7.77;;;1.30;99.90;;;;;;5056684;28;20640;-64
2022/01/15 07:35:01;;;;;;;29.67;8.73;;;1.30;99.90;;;;;;5063161;28;20231;-63
2022/01/15 07:37:27;;;;;;;23.47;7.93;;;1.30;99.90;;;;;;5063725;28;20225;-63
2022/01/15 07:39:53;;;;;;;20.97;7.00;;;1.30;99.90;;;;;;5054846;28;20918;-63
2022/01/15 07:42:19;;;;;;;22.00;7.63;;;1.30;99.90;;;;;;5059250;28;20202;-62
2022/01/15 07:44:45;;;;;;;28.37;7.13;;;1.30;99.90;;;;;;5054644;28;20831;-62
2022/01/15 07:47:12;;;;;;;16.50;5.97;;;1.40;99.90;;;;;;5060414;28;20227;-62
2022/01/15 07:49:37;;;;;;;21.37;6.30;;;1.40;99.90;;;;;;5060879;28;20597;-62
2022/01/15 07:52:03;;;;;;;18.30;7.67;;;1.40;99.90;;;;;;5061773;28;20196;-62
2022/01/15 07:54:29;;;;;;;17.10;6.37;;;1.40;99.90;;;;;;5059543;28;20238;-62
2022/01/15 07:56:55;;;;;;;23.70;7.00;;;1.40;99.90;;;;;;5063018;28;20200;-63
2022/01/15 07:59:23;;;;;;;18.17;6.70;;;1.40;99.90;;;;;;5058417;28;20185;-63
2022/01/15 08:01:49;;;;;;;17.40;7.90;;;1.40;99.90;;;;;;5062809;28;20229;-63
2022/01/15 08:04:14;;;;;;;20.80;7.27;;;1.50;99.90;;;;;;5053461;28;20226;-63
2022/01/15 08:06:41;;;;;;;29.27;8.03;;;1.50;99.90;;;;;;5066160;28;20325;-63
2022/01/15 08:09:07;;;;;;;27.07;7.80;;;1.50;99.90;;;;;;5054586;28;20210;-63
2022/01/15 08:11:32;;;;;;;14.33;6.63;;;1.50;99.90;;;;;;5063649;28;20194;-63
2022/01/15 08:13:58;;;;;;;25.40;7.20;;;1.60;99.90;;;;;;5063258;28;20520;-63
2022/01/15 08:16:23;;;;;;;17.40;7.33;;;1.60;99.90;;;;;;5065837;28;20194;-63
2022/01/15 08:18:49;;;;;;;16.60;6.53;;;1.60;99.90;;;;;;5059954;28;20198;-62
2022/01/15 08:21:15;;;;;;;27.93;7.17;;;1.60;99.90;;;;;;5064435;28;20225;-62
2022/01/15 08:23:40;;;;;;;13.17;6.17;;;1.70;99.90;;;;;;5057805;28;20313;-63
2022/01/15 08:26:06;;;;;;;19.37;6.37;;;1.70;99.90;;;;;;5065127;28;20194;-63
2022/01/15 08:28:31;;;;;;;21.80;6.90;;;1.70;99.90;;;;;;5054499;28;20202;-63
2022/01/15 08:30:57;;;;;;;13.17;5.40;;;1.70;99.90;;;;;;5065770;28;20283;-63
2022/01/15 08:33:22;;;;;;;20.37;6.43;;;1.80;99.90;;;;;;5054543;28;20245;-63
2022/01/15 08:35:48;;;;;;;20.73;7.47;;;1.80;99.90;;;;;;5065347;28;20294;-63
2022/01/15 08:38:13;;;;;;;21.10;8.20;;;1.80;99.90;;;;;;5053913;28;20260;-63
2022/01/15 08:40:39;;;;;;;14.03;6.43;;;1.90;99.90;;;;;;5065484;28;20201;-63
2022/01/15 08:43:05;;;;;;;12.17;5.47;;;1.90;99.90;;;;;;5052449;28;20349;-63
2022/01/15 08:45:32;;;;;;;22.13;6.37;;;2.00;99.90;;;;;;5064551;28;20220;-63
2022/01/15 08:47:57;;;;;;;21.50;6.40;;;2.00;99.90;;;;;;5053346;28;20206;-64
2022/01/15 08:50:23;;;;;;;20.27;6.90;;;2.10;99.90;;;;;;5064599;28;20258;-63
2022/01/15 08:52:49;;;;;;;18.73;7.17;;;2.10;99.90;;;;;;5062871;28;20305;-63
2022/01/15 08:55:16;;;;;;;18.70;6.83;;;2.20;99.90;;;;;;5064678;28;20288;-62
2022/01/15 08:57:42;;;;;;;16.67;6.60;;;2.20;99.90;;;;;;5055435;28;20208;-62
2022/01/15 09:00:10;;;;;;;19.63;7.73;;;2.20;99.90;;;;;;5064687;28;20190;-62
2022/01/15 09:02:36;;;;;;;18.27;9.83;;;2.30;99.90;;;;;;5056384;28;20606;-62
2022/01/15 09:05:02;;;;;;;23.10;9.70;;;2.30;99.90;;;;;;5051747;28;20213;-62
2022/01/15 09:07:28;;;;;;;23.53;8.87;;;2.30;99.90;;;;;;5062508;28;20255;-62
2022/01/15 09:09:53;;;;;;;29.63;10.20;;;2.30;99.90;;;;;;5051923;28;20590;-62
2022/01/15 09:12:22;;;;;;;27.20;9.43;;;2.10;99.90;;;;;;5062640;28;20217;-62
2022/01/15 09:14:59;;;;;;;22.73;7.80;;;2.10;99.90;;;;;;5052451;28;20210;-63
2022/01/15 09:17:26;;;;;;;23.90;8.10;;;2.00;99.90;;;;;;5054118;28;20190;-62
2022/01/15 09:19:51;;;;;;;21.40;6.87;;;2.00;99.90;;;;;;5056358;28;20214;-63
2022/01/15 09:22:17;;;;;;;23.73;7.13;;;2.00;99.90;;;;;;5058230;28;20257;-62
2022/01/15 09:24:46;;;;;;;20.53;7.10;;;2.00;99.90;;;;;;5053122;28;20186;-63
2022/01/15 09:30:12;;;;;;;19.40;7.43;;;2.10;99.90;;;;;;5052893;28;20259;-64
2022/01/15 09:32:58;;;;;;;25.47;9.30;;;2.10;99.90;;;;;;5058483;28;20206;-63
2022/01/15 09:35:28;;;;;;;27.40;9.13;;;2.10;99.90;;;;;;5052576;28;20241;-63
2022/01/15 09:37:54;;;;;;;18.17;6.97;;;2.20;99.90;;;;;;5062637;28;20212;-63
2022/01/15 09:40:22;;;;;;;25.77;7.70;;;2.10;99.90;;;;;;5064013;28;20656;-63
2022/01/15 09:42:49;;;;;;;22.13;7.40;;;2.10;99.90;;;;;;5063008;28;20701;-63
2022/01/15 09:45:19;;;;;;;21.50;6.60;;;2.10;99.90;;;;;;5064946;28;20190;-62
2022/01/15 09:47:45;;;;;;;26.40;6.97;;;2.10;99.90;;;;;;5056181;28;20232;-63
2022/01/15 09:50:14;;;;;;;16.60;7.23;;;2.10;99.90;;;;;;5064289;28;20947;-63
2022/01/15 09:52:40;;;;;;;19.23;6.90;;;2.10;99.90;;;;;;5055041;28;20225;-63
2022/01/15 09:55:09;;;;;;;20.70;7.77;;;2.00;99.90;;;;;;5063403;28;20284;-63
2022/01/15 09:57:36;;;;;;;18.00;7.10;;;2.00;99.90;;;;;;5059874;28;20195;-63
2022/01/15 10:00:09;;;;;;;21.03;6.30;;;2.00;99.90;;;;;;5062454;28;20199;-63
2022/01/15 10:02:36;;;;;;;20.90;7.30;;;1.90;99.90;;;;;;5059997;28;20275;-63
2022/01/15 10:05:02;;;;;;;18.43;7.53;;;2.00;99.90;;;;;;5058663;28;20380;-63
2022/01/15 10:07:28;;;;;;;23.03;8.23;;;2.10;99.90;;;;;;5061039;28;20292;-63
2022/01/15 10:09:54;;;;;;;18.20;7.90;;;2.10;99.90;;;;;;5052283;28;20283;-62
2022/01/15 10:12:31;;;;;;;32.37;8.77;;;2.20;99.90;;;;;;5066350;28;20209;-63
2022/01/15 10:15:05;;;;;;;20.57;8.17;;;2.20;99.90;;;;;;5056139;28;20211;-64
2022/01/15 10:17:36;;;;;;;23.87;7.77;;;2.20;99.90;;;;;;5058613;28;20235;-62
2022/01/15 10:20:08;;;;;;;18.10;8.03;;;2.30;99.90;;;;;;5053774;28;20990;-63
2022/01/15 10:22:34;;;;;;;28.20;8.57;;;2.30;99.90;;;;;;5065813;28;20226;-63
2022/01/15 10:25:10;;;;;;;16.93;7.73;;;2.40;99.90;;;;;;5055549;28;20216;-63
2022/01/15 10:27:47;;;;;;;24.67;9.23;;;2.50;99.90;;;;;;5066224;28;20267;-63
2022/01/15 10:30:14;;;;;;;19.80;8.53;;;2.50;99.90;;;;;;5055060;28;20198;-63
2022/01/15 10:32:53;;;;;;;19.97;7.63;;;2.60;99.90;;;;;;5054771;28;20213;-62
2022/01/15 10:35:19;;;;;;;18.93;8.33;;;2.60;99.90;;;;;;5058280;28;20183;-63
2022/01/15 10:37:52;;;;;;;27.47;10.13;;;2.60;99.90;;;;;;5056293;28;20205;-62
2022/01/15 10:40:20;;;;;;;25.43;9.23;;;2.70;99.90;;;;;;5057178;28;20201;-61
2022/01/15 10:42:51;;;;;;;22.00;9.23;;;2.70;99.90;;;;;;5055890;28;20688;-61
2022/01/15 10:45:17;;;;;;;25.03;10.77;;;2.70;99.90;;;;;;5058562;28;20207;-62
2022/01/15 10:47:49;;;;;;;21.97;10.47;;;2.70;99.90;;;;;;5055109;28;20203;-62
2022/01/15 10:50:21;;;;;;;26.37;9.83;;;2.70;99.90;;;;;;5057322;28;20435;-63
2022/01/15 10:52:47;;;;;;;30.73;9.30;;;2.70;99.90;;;;;;5055438;28;20205;-62
2022/01/15 10:55:15;;;;;;;23.20;10.23;;;2.80;99.90;;;;;;5055947;28;20215;-62
2022/01/15 10:57:52;;;;;;;23.27;9.63;;;2.60;99.90;;;;;;5054322;28;20202;-62
2022/01/15 11:00:20;;;;;;;20.87;7.77;;;2.60;99.90;;;;;;5056989;28;20190;-62
2022/01/15 11:02:49;;;;;;;20.43;9.27;;;2.70;99.90;;;;;;5057660;28;20404;-61
2022/01/15 11:05:26;;;;;;;28.77;9.30;;;2.70;99.90;;;;;;5054956;28;20201;-61
2022/01/15 11:07:52;;;;;;;26.07;9.67;;;2.70;99.90;;;;;;5053597;28;20592;-61
2022/01/15 11:10:18;;;;;;;25.97;10.30;;;2.50;99.90;;;;;;5056045;28;20191;-61
2022/01/15 11:12:44;;;;;;;112.77;55.70;;;2.50;99.90;;;;;;5055549;28;20735;-62
2022/01/15 11:15:09;;;;;;;30.47;12.60;;;2.50;99.90;;;;;;5054629;28;20214;-63
2022/01/15 11:17:35;;;;;;;16.10;8.97;;;2.50;99.90;;;;;;5054718;28;20194;-64
2022/01/15 11:20:04;;;;;;;21.67;9.33;;;2.60;99.90;;;;;;5058115;28;20187;-64
2022/01/15 11:22:32;;;;;;;18.40;9.67;;;2.50;99.90;;;;;;5055493;28;20331;-66
2022/01/15 11:24:58;;;;;;;22.03;8.20;;;2.40;99.90;;;;;;5055437;28;20247;-66
2022/01/15 11:27:27;;;;;;;20.83;10.27;;;2.30;99.90;;;;;;5053644;28;20217;-66
2022/01/15 11:29:57;;;;;;;24.83;8.97;;;2.40;99.90;;;;;;5054525;28;20190;-66
2022/01/15 11:32:23;;;;;;;16.70;7.30;;;2.30;99.90;;;;;;5060983;28;20237;-76
2022/01/15 11:34:59;;;;;;;19.60;8.50;;;2.40;99.90;;;;;;5050797;28;20252;-69
2022/01/15 11:37:25;;;;;;;23.70;9.40;;;2.60;99.90;;;;;;5064677;28;20259;-66
2022/01/15 11:39:54;;;;;;;21.23;9.07;;;2.90;99.90;;;;;;5055044;28;20185;-67
2022/01/15 11:42:28;;;;;;;26.80;10.57;;;3.10;99.90;;;;;;5064368;28;20570;-66
2022/01/15 11:44:54;;;;;;;21.07;9.73;;;3.30;99.90;;;;;;5066936;28;20543;-66
2022/01/15 11:47:23;;;;;;;23.80;7.20;;;3.40;99.90;;;;;;5059009;28;20305;-66
2022/01/15 11:49:50;;;;;;;21.17;7.77;;;3.60;99.90;;;;;;5054904;28;20198;-66
2022/01/15 11:52:17;;;;;;;21.90;8.13;;;3.60;99.90;;;;;;5064065;28;20204;-69
2022/01/15 11:54:49;;;;;;;19.40;8.47;;;3.50;99.90;;;;;;5053576;28;20208;-68
2022/01/15 11:57:26;;;;;;;16.63;7.77;;;3.60;99.90;;;;;;5060095;28;20836;-70
2022/01/15 11:59:53;;;;;;;19.23;7.33;;;3.30;99.90;;;;;;5058302;28;20273;-70
2022/01/15 12:02:43;;;;;;;21.37;7.60;;;3.00;99.90;;;;;;5059267;28;20193;-67
2022/01/15 12:05:17;;;;;;;18.07;7.83;;;2.80;99.90;;;;;;5064536;28;20202;-68
2022/01/15 12:07:43;;;;;;;25.40;8.07;;;2.90;99.90;;;;;;5053150;28;20634;-68
2022/01/15 12:10:13;;;;;;;22.83;6.27;;;2.90;99.90;;;;;;5061396;28;20312;-69
2022/01/15 12:12:48;;;;;;;17.03;8.50;;;2.80;99.90;;;;;;5061994;28;20209;-68
2022/01/15 12:15:17;;;;;;;16.13;6.70;;;2.80;99.90;;;;;;5056026;28;20206;-69
2022/01/15 12:17:51;;;;;;;18.57;6.77;;;2.80;99.90;;;;;;5053379;28;20793;-68
2022/01/15 12:20:17;;;;;;;19.50;7.50;;;2.70;99.90;;;;;;5053263;28;20185;-69
2022/01/15 12:22:47;;;;;;;19.20;7.43;;;2.70;99.90;;;;;;5055547;28;20682;-70
2022/01/15 12:25:30;;;;;;;20.47;7.83;;;2.60;99.90;;;;;;5054040;28;20208;-69
2022/01/15 12:28:05;;;;;;;20.43;9.10;;;2.60;99.90;;;;;;5053583;28;20248;-69
2022/01/15 12:30:40;;;;;;;20.03;8.20;;;2.50;99.90;;;;;;5056096;28;20196;-69
2022/01/15 12:33:07;;;;;;;28.27;10.97;;;2.50;99.90;;;;;;5052188;28;20201;-71
2022/01/15 12:35:35;;;;;;;23.17;8.27;;;2.60;99.90;;;;;;5064894;28;20209;-72
2022/01/15 12:38:12;;;;;;;15.03;7.50;;;2.70;99.90;;;;;;5062773;28;20202;-71
2022/01/15 12:40:43;;;;;;;27.67;9.90;;;2.70;99.90;;;;;;5047413;28;20729;-71
2022/01/15 12:43:17;;;;;;;19.33;7.97;;;2.70;99.90;;;;;;5052243;28;20199;-71
2022/01/15 12:45:46;;;;;;;19.10;8.07;;;2.80;99.90;;;;;;5053086;28;20288;-67
2022/01/15 12:48:16;;;;;;;26.63;9.30;;;2.80;99.90;;;;;;5048508;28;20228;-67
2022/01/15 12:50:45;;;;;;;22.47;8.90;;;2.90;99.90;;;;;;5052281;28;20304;-69
2022/01/15 12:53:12;;;;;;;21.43;8.27;;;3.20;99.90;;;;;;5054878;28;20508;-69
2022/01/15 12:55:38;;;;;;;19.17;8.53;;;3.30;99.90;;;;;;5056105;28;20198;-70
2022/01/15 12:58:07;;;;;;;22.17;9.53;;;3.10;99.90;;;;;;5056086;28;20217;-70
2022/01/15 13:00:36;;;;;;;17.47;11.07;;;3.10;99.90;;;;;;5064361;28;20247;-70
2022/01/15 13:03:07;;;;;;;18.90;8.53;;;3.00;99.90;;;;;;5072353;28;20210;-70
2022/01/15 13:05:36;;;;;;;13.37;7.10;;;3.10;99.90;;;;;;5074641;28;20280;-70
2022/01/15 13:08:06;;;;;;;19.47;9.53;;;3.20;99.90;;;;;;5070923;28;20264;-69
2022/01/15 13:10:45;;;;;;;19.47;8.87;;;3.20;99.90;;;;;;5075032;28;20265;-69
2022/01/15 13:13:20;;;;;;;15.13;8.50;;;3.20;99.90;;;;;;5057661;28;20198;-69
2022/01/15 13:15:46;;;;;;;18.30;9.80;;;3.20;99.90;;;;;;5053095;28;20230;-69